createdAt,value
2023-01-09T00:01:20.416Z,8.80
2023-01-09T00:03:47.515Z,8.73
2023-01-09T00:06:14.620Z,8.70
2023-01-09T00:08:43.828Z,8.65
2023-01-09T00:11:10.777Z,8.58
2023-01-09T00:13:38.650Z,8.65
2023-01-09T00:16:07.464Z,8.62
2023-01-09T00:18:35.609Z,8.70
2023-01-09T00:21:04.627Z,8.63
2023-01-09T00:23:31.775Z,8.65
2023-01-09T00:26:13.431Z,8.74
2023-01-09T00:28:41.148Z,8.85
2023-01-09T00:31:09.809Z,8.82
2023-01-09T00:33:41.063Z,8.72
2023-01-09T00:36:08.853Z,8.73
2023-01-09T00:38:37.563Z,8.86
2023-01-09T00:41:08.178Z,8.83
2023-01-09T00:43:40.172Z,8.69
2023-01-09T00:46:08.537Z,8.70
2023-01-09T00:48:39.237Z,8.54
2023-01-09T00:51:08.336Z,8.44
2023-01-09T00:53:40.711Z,8.55
2023-01-09T00:56:12.654Z,8.52
2023-01-09T00:58:39.935Z,8.50
2023-01-09T01:01:06.928Z,8.49
2023-01-09T01:03:33.923Z,8.45
2023-01-09T01:06:19.419Z,8.47
2023-01-09T01:08:46.769Z,8.45
2023-01-09T01:11:13.731Z,8.47
2023-01-09T01:13:41.708Z,8.41
2023-01-09T01:16:12.122Z,8.45
2023-01-09T01:18:40.214Z,8.45
2023-01-09T01:21:11.914Z,8.40
2023-01-09T01:23:38.909Z,8.37
2023-01-09T01:26:16.656Z,8.47
2023-01-09T01:28:43.559Z,8.40
2023-01-09T01:31:17.362Z,8.40
2023-01-09T01:33:44.416Z,8.40
2023-01-09T01:36:11.372Z,8.40
2023-01-09T01:38:38.318Z,8.55
2023-01-09T01:41:05.838Z,8.69
2023-01-09T01:43:55.624Z,8.57
2023-01-09T01:46:23.220Z,8.62
2023-01-09T01:48:55.287Z,8.84
2023-01-09T01:51:25.046Z,8.88
2023-01-09T01:53:55.755Z,8.71
2023-01-09T01:56:37.959Z,8.74
2023-01-09T01:59:17.478Z,8.86
2023-01-09T02:01:48.786Z,9.05
2023-01-09T02:04:16.180Z,8.88
2023-01-09T02:06:46.620Z,8.95
2023-01-09T02:09:15.556Z,8.76
2023-01-09T02:11:46.589Z,8.75
2023-01-09T02:14:15.953Z,8.63
2023-01-09T02:17:09.104Z,8.46
2023-01-09T02:19:48.128Z,8.48
2023-01-09T02:22:43.843Z,8.33
2023-01-09T02:25:39.642Z,8.34
2023-01-09T02:28:20.612Z,8.39
2023-01-09T02:30:57.368Z,8.12
2023-01-09T02:34:12.544Z,8.11
2023-01-09T02:37:01.123Z,8.08
2023-01-09T02:39:31.418Z,8.14
2023-01-09T02:42:06.037Z,8.08
2023-01-09T02:44:36.230Z,8.15
2023-01-09T02:47:29.626Z,8.27
2023-01-09T02:50:02.188Z,8.23
2023-01-09T02:52:48.827Z,8.28
2023-01-09T02:55:54.220Z,8.20
2023-01-09T02:58:39.688Z,8.08
2023-01-09T03:01:24.981Z,8.33
2023-01-09T03:04:13.401Z,8.31
2023-01-09T03:06:56.107Z,8.35
2023-01-09T03:09:27.706Z,8.51
2023-01-09T03:12:01.887Z,8.60
2023-01-09T03:14:32.484Z,8.56
2023-01-09T03:17:11.733Z,8.56
2023-01-09T03:19:39.190Z,8.65
2023-01-09T03:22:08.256Z,8.70
2023-01-09T03:24:35.141Z,8.73
2023-01-09T03:27:02.908Z,8.77
2023-01-09T03:29:30.067Z,8.78
2023-01-09T03:31:57.614Z,8.84
2023-01-09T03:34:24.576Z,8.88
2023-01-09T03:36:51.738Z,8.95
2023-01-09T03:39:18.682Z,8.89
2023-01-09T03:41:45.489Z,8.85
2023-01-09T03:44:12.385Z,8.83
2023-01-09T03:46:39.231Z,8.90
2023-01-09T03:49:06.187Z,8.90
2023-01-09T03:51:33.131Z,8.92
2023-01-09T03:54:00.108Z,9.00
2023-01-09T03:56:27.032Z,9.12
2023-01-09T03:58:53.895Z,9.03
2023-01-09T04:01:20.915Z,9.01
2023-01-09T04:03:48.239Z,9.08
2023-01-09T04:06:15.243Z,9.04
2023-01-09T04:08:42.194Z,9.01
2023-01-09T04:11:09.876Z,9.01
2023-01-09T04:13:36.815Z,9.01
2023-01-09T04:16:03.933Z,9.06
2023-01-09T04:18:31.125Z,9.17
2023-01-09T04:20:58.685Z,9.05
2023-01-09T04:23:25.532Z,9.06
2023-01-09T04:25:52.486Z,9.08
2023-01-09T04:28:22.733Z,9.15
2023-01-09T04:30:49.670Z,9.26
2023-01-09T04:33:16.617Z,9.18
2023-01-09T04:35:43.569Z,9.32
2023-01-09T04:38:10.412Z,9.25
2023-01-09T04:40:37.259Z,9.27
2023-01-09T04:43:04.108Z,9.37
2023-01-09T04:45:34.088Z,9.18
2023-01-09T04:48:01.586Z,9.19
2023-01-09T04:50:28.745Z,9.15
2023-01-09T04:52:57.843Z,9.08
2023-01-09T04:55:25.014Z,9.08
2023-01-09T04:57:52.157Z,9.15
2023-01-09T05:00:19.309Z,9.26
2023-01-09T05:02:46.162Z,9.19
2023-01-09T05:05:13.108Z,9.17
2023-01-09T05:07:40.683Z,9.27
2023-01-09T05:10:10.231Z,9.22
2023-01-09T05:12:37.359Z,9.23
2023-01-09T05:15:05.821Z,9.28
2023-01-09T05:17:32.772Z,9.26
2023-01-09T05:20:01.113Z,9.36
2023-01-09T05:22:29.031Z,9.45
2023-01-09T05:24:55.976Z,9.45
2023-01-09T05:27:22.937Z,9.30
2023-01-09T05:29:49.825Z,9.29
2023-01-09T05:32:16.734Z,9.35
2023-01-09T05:34:43.677Z,9.47
2023-01-09T05:37:10.528Z,9.37
2023-01-09T05:39:37.497Z,9.35
2023-01-09T05:42:04.649Z,9.47
2023-01-09T05:44:31.462Z,9.43
2023-01-09T05:46:58.330Z,9.49
2023-01-09T05:49:25.278Z,9.59
2023-01-09T05:51:52.127Z,9.43
2023-01-09T05:54:18.990Z,9.42
2023-01-09T05:56:45.821Z,9.44
2023-01-09T05:59:12.676Z,9.41
2023-01-09T06:01:39.620Z,9.37
2023-01-09T06:04:06.468Z,9.43
2023-01-09T06:06:33.417Z,9.40
2023-01-09T06:09:00.366Z,9.32
2023-01-09T06:11:27.326Z,9.53
2023-01-09T06:13:54.273Z,9.62
2023-01-09T06:16:21.147Z,9.44
2023-01-09T06:18:48.172Z,9.56
2023-01-09T06:21:15.141Z,9.46
2023-01-09T06:23:42.091Z,9.43
2023-01-09T06:26:09.125Z,9.27
2023-01-09T06:28:36.076Z,9.37
2023-01-09T06:31:03.203Z,9.45
2023-01-09T06:33:30.594Z,9.35
2023-01-09T06:35:57.438Z,9.30
2023-01-09T06:38:24.351Z,9.31
2023-01-09T06:40:51.237Z,9.41
2023-01-09T06:43:18.088Z,9.53
2023-01-09T06:45:45.237Z,9.51
2023-01-09T06:48:12.724Z,9.47
2023-01-09T06:50:39.667Z,9.53
2023-01-09T06:53:07.228Z,9.39
2023-01-09T06:55:34.195Z,9.26
2023-01-09T06:58:01.127Z,9.06
2023-01-09T07:00:28.500Z,9.07
2023-01-09T07:02:55.429Z,9.10
2023-01-09T07:05:22.585Z,9.00
2023-01-09T07:07:49.500Z,9.02
2023-01-09T07:10:16.385Z,9.06
2023-01-09T07:12:43.456Z,8.96
2023-01-09T07:15:11.316Z,9.16
2023-01-09T07:17:38.473Z,9.24
2023-01-09T07:20:06.230Z,9.23
2023-01-09T07:22:33.288Z,9.31
2023-01-09T07:25:00.248Z,9.44
2023-01-09T07:27:27.290Z,9.54
2023-01-09T07:29:54.345Z,9.56
2023-01-09T07:32:21.393Z,9.58
2023-01-09T07:34:49.475Z,9.81
2023-01-09T07:37:16.424Z,9.87
2023-01-09T07:39:44.225Z,9.84
2023-01-09T07:42:11.968Z,9.88
2023-01-09T07:44:38.807Z,10.04
2023-01-09T07:47:05.867Z,10.10
2023-01-09T07:49:33.021Z,10.06
2023-01-09T07:51:59.969Z,10.21
2023-01-09T07:54:26.927Z,10.07
2023-01-09T07:56:54.190Z,9.17
2023-01-09T07:59:21.128Z,8.76
2023-01-09T08:01:48.157Z,9.09
2023-01-09T08:04:15.235Z,9.31
2023-01-09T08:06:42.182Z,9.41
2023-01-09T08:09:09.541Z,9.98
2023-01-09T08:11:36.602Z,10.39
2023-01-09T08:14:04.059Z,10.42
2023-01-09T08:16:31.007Z,9.82
2023-01-09T08:18:57.970Z,9.29
2023-01-09T08:21:25.422Z,9.30
2023-01-09T08:23:52.369Z,10.15
2023-01-09T08:26:20.040Z,11.02
2023-01-09T08:28:47.197Z,10.74
2023-01-09T08:31:15.330Z,10.00
2023-01-09T08:33:42.937Z,9.36
2023-01-09T08:36:10.224Z,9.13
2023-01-09T08:38:37.993Z,9.81
2023-01-09T08:41:24.977Z,10.49
2023-01-09T08:44:11.060Z,10.16
2023-01-09T08:46:57.158Z,9.46
2023-01-09T08:49:24.100Z,9.41
2023-01-09T08:51:51.383Z,10.00
2023-01-09T08:54:18.325Z,10.46
2023-01-09T08:56:45.482Z,10.26
2023-01-09T08:59:13.977Z,9.35
2023-01-09T09:01:41.070Z,8.90
2023-01-09T09:04:08.257Z,9.56
2023-01-09T09:06:38.293Z,10.10
2023-01-09T09:09:06.789Z,10.47
2023-01-09T09:11:37.496Z,10.15
2023-01-09T09:14:25.428Z,9.14
2023-01-09T09:16:53.443Z,8.94
2023-01-09T09:19:20.580Z,9.46
2023-01-09T09:21:47.716Z,9.95
2023-01-09T09:24:14.796Z,10.18
2023-01-09T09:26:43.782Z,10.42
2023-01-09T09:29:11.857Z,10.59
2023-01-09T09:31:39.267Z,9.70
2023-01-09T09:34:07.889Z,9.11
2023-01-09T09:36:35.087Z,9.54
2023-01-09T09:39:03.030Z,10.07
2023-01-09T09:42:08.246Z,10.52
2023-01-09T09:44:54.394Z,10.27
2023-01-09T09:47:43.601Z,9.37
2023-01-09T09:50:22.916Z,9.57
2023-01-09T09:52:59.316Z,10.13
2023-01-09T09:55:38.862Z,10.55
2023-01-09T09:58:11.632Z,10.63
2023-01-09T10:00:38.656Z,9.81
2023-01-09T10:03:12.139Z,9.35
2023-01-09T10:05:46.600Z,9.81
2023-01-09T10:08:25.889Z,10.32
2023-01-09T10:10:55.772Z,10.47
2023-01-09T10:13:42.536Z,10.64
2023-01-09T10:16:28.806Z,10.72
2023-01-09T10:19:19.625Z,10.78
2023-01-09T10:22:14.000Z,10.89
2023-01-09T10:24:50.163Z,10.74
2023-01-09T10:27:41.481Z,9.76
2023-01-09T10:30:14.360Z,9.47
2023-01-09T10:32:47.436Z,9.95
2023-01-09T10:35:47.603Z,10.20
2023-01-09T10:38:23.507Z,10.33
2023-01-09T10:41:07.954Z,10.50
2023-01-09T10:43:47.699Z,10.57
2023-01-09T10:46:30.931Z,10.59
2023-01-09T10:49:07.388Z,10.61
2023-01-09T10:51:48.555Z,10.67
2023-01-09T10:54:19.354Z,10.48
2023-01-09T10:57:25.857Z,10.47
2023-01-09T10:59:52.872Z,10.62
2023-01-09T11:02:31.381Z,10.94
2023-01-09T11:04:58.365Z,10.96
2023-01-09T11:07:31.075Z,11.05
2023-01-09T11:10:09.992Z,10.95
2023-01-09T11:12:37.225Z,10.85
2023-01-09T11:15:16.925Z,10.91
2023-01-09T11:17:44.856Z,10.89
2023-01-09T11:20:20.422Z,10.82
2023-01-09T11:22:53.694Z,10.91
2023-01-09T11:25:23.186Z,10.94
2023-01-09T11:28:08.572Z,11.11
2023-01-09T11:30:37.367Z,11.14
2023-01-09T11:33:26.315Z,11.09
2023-01-09T11:36:11.197Z,11.04
2023-01-09T11:38:54.256Z,11.19
2023-01-09T11:41:24.019Z,11.28
2023-01-09T11:43:53.005Z,11.19
2023-01-09T11:46:49.460Z,11.29
2023-01-09T11:49:25.237Z,11.35
2023-01-09T11:52:16.349Z,11.34
2023-01-09T11:54:54.481Z,11.35
2023-01-09T11:57:24.453Z,11.41
2023-01-09T11:59:51.461Z,11.32
2023-01-09T12:02:37.548Z,11.42
2023-01-09T12:05:23.124Z,11.53
2023-01-09T12:07:50.072Z,11.31
2023-01-09T12:10:29.713Z,11.05
2023-01-09T12:13:34.107Z,11.11
2023-01-09T12:16:03.963Z,11.20
2023-01-09T12:18:40.924Z,11.25
2023-01-09T12:21:23.347Z,11.13
2023-01-09T12:24:14.734Z,11.07
2023-01-09T12:27:06.968Z,10.88
2023-01-09T12:29:55.491Z,10.76
2023-01-09T12:32:28.676Z,10.86
2023-01-09T12:35:14.163Z,10.83
2023-01-09T12:37:50.882Z,10.64
2023-01-09T12:40:32.407Z,10.60
2023-01-09T12:43:16.758Z,10.46
2023-01-09T12:46:05.493Z,10.50
2023-01-09T12:48:47.814Z,10.61
2023-01-09T12:51:20.793Z,10.64
2023-01-09T12:53:52.169Z,10.65
2023-01-09T12:56:26.472Z,10.57
2023-01-09T12:59:02.105Z,10.55
2023-01-09T13:01:45.493Z,10.54
2023-01-09T13:04:34.917Z,10.62
2023-01-09T13:07:12.192Z,10.54
2023-01-09T13:09:55.236Z,10.59
2023-01-09T13:12:25.369Z,10.56
2023-01-09T13:15:01.000Z,10.56
2023-01-09T13:17:43.790Z,10.52
2023-01-09T13:20:22.819Z,10.46
2023-01-09T13:22:51.209Z,10.44
2023-01-09T13:25:33.660Z,10.45
2023-01-09T13:28:23.573Z,10.31
2023-01-09T13:31:09.147Z,10.33
2023-01-09T13:33:39.788Z,10.57
2023-01-09T13:36:07.140Z,10.60
2023-01-09T13:38:38.915Z,10.66
2023-01-09T13:41:34.401Z,10.60
2023-01-09T13:44:08.098Z,10.58
2023-01-09T13:46:39.263Z,10.66
2023-01-09T13:49:08.463Z,10.68
2023-01-09T13:51:37.158Z,10.76
2023-01-09T13:54:04.923Z,10.69
2023-01-09T13:56:32.279Z,10.62
2023-01-09T13:59:02.319Z,10.68
2023-01-09T14:01:36.344Z,10.78
2023-01-09T14:04:14.735Z,10.89
2023-01-09T14:06:45.268Z,10.80
2023-01-09T14:09:15.274Z,10.84
2023-01-09T14:11:43.970Z,10.82
2023-01-09T14:14:29.117Z,10.80
2023-01-09T14:16:59.541Z,10.82
2023-01-09T14:19:34.610Z,10.85
2023-01-09T14:22:02.647Z,10.86
2023-01-09T14:24:32.289Z,10.88
2023-01-09T14:27:02.041Z,10.87
2023-01-09T14:29:29.612Z,10.94
2023-01-09T14:32:26.706Z,10.92
2023-01-09T14:35:18.109Z,10.91
2023-01-09T14:37:51.605Z,10.98
2023-01-09T14:40:23.671Z,10.97
2023-01-09T14:42:58.314Z,10.97
2023-01-09T14:45:27.398Z,10.98
2023-01-09T14:48:03.879Z,10.99
2023-01-09T14:50:51.496Z,10.95
2023-01-09T14:53:24.275Z,10.86
2023-01-09T14:55:59.471Z,10.87
2023-01-09T14:58:32.429Z,10.86
2023-01-09T15:01:19.257Z,10.99
2023-01-09T15:03:51.795Z,10.94
2023-01-09T15:06:21.706Z,11.13
2023-01-09T15:08:54.175Z,11.09
2023-01-09T15:11:21.550Z,11.15
2023-01-09T15:13:51.544Z,11.13
2023-01-09T15:16:22.737Z,11.20
2023-01-09T15:18:54.110Z,11.14
2023-01-09T15:21:27.504Z,11.10
2023-01-09T15:23:55.023Z,11.25
2023-01-09T15:26:29.247Z,11.17
2023-01-09T15:29:16.368Z,11.10
2023-01-09T15:31:45.901Z,11.25
2023-01-09T15:34:19.850Z,11.27
2023-01-09T15:36:49.475Z,11.25
2023-01-09T15:39:27.140Z,11.16
2023-01-09T15:42:14.493Z,11.25
2023-01-09T15:44:44.024Z,11.27
2023-01-09T15:47:22.099Z,11.23
2023-01-09T15:49:50.790Z,11.21
2023-01-09T15:52:23.885Z,11.26
2023-01-09T15:54:51.456Z,11.35
2023-01-09T15:57:24.443Z,11.26
2023-01-09T15:59:52.305Z,11.26
2023-01-09T16:02:40.043Z,11.24
2023-01-09T16:05:15.260Z,11.31
2023-01-09T16:07:47.641Z,11.40
2023-01-09T16:10:35.160Z,11.37
2023-01-09T16:13:03.241Z,11.52
2023-01-09T16:15:34.956Z,11.44
2023-01-09T16:18:29.274Z,11.42
2023-01-09T16:21:12.907Z,11.50
2023-01-09T16:23:52.030Z,11.43
2023-01-09T16:26:23.856Z,11.48
2023-01-09T16:28:51.158Z,11.55
2023-01-09T16:31:31.664Z,11.67
2023-01-09T16:34:06.580Z,11.64
2023-01-09T16:36:37.633Z,11.75
2023-01-09T16:39:05.261Z,11.72
2023-01-09T16:41:50.739Z,11.70
2023-01-09T16:44:19.621Z,11.70
2023-01-09T16:46:46.792Z,11.78
2023-01-09T16:49:23.582Z,11.83
2023-01-09T16:51:51.853Z,11.78
2023-01-09T16:54:20.032Z,11.82
2023-01-09T16:56:54.465Z,11.85
2023-01-09T16:59:26.948Z,11.80
2023-01-09T17:01:55.263Z,11.74
2023-01-09T17:04:26.617Z,11.73
2023-01-09T17:06:53.809Z,11.90
2023-01-09T17:09:24.589Z,11.99
2023-01-09T17:11:53.044Z,11.83
2023-01-09T17:14:20.231Z,11.73
2023-01-09T17:16:48.743Z,11.80
2023-01-09T17:19:19.341Z,12.01
2023-01-09T17:21:46.677Z,11.78
2023-01-09T17:24:33.181Z,11.79
2023-01-09T17:27:20.616Z,11.89
2023-01-09T17:29:48.407Z,11.98
2023-01-09T17:32:17.225Z,11.94
2023-01-09T17:34:44.391Z,11.94
2023-01-09T17:37:19.323Z,12.10
2023-01-09T17:39:47.183Z,12.08
2023-01-09T17:42:14.400Z,11.95
2023-01-09T17:44:42.088Z,11.96
2023-01-09T17:47:18.920Z,11.92
2023-01-09T17:49:45.951Z,11.91
2023-01-09T17:52:13.555Z,11.89
2023-01-09T17:54:41.606Z,11.86
2023-01-09T17:57:15.555Z,11.94
2023-01-09T17:59:43.018Z,11.87
2023-01-09T18:02:18.600Z,11.86
2023-01-09T18:04:46.058Z,12.10
2023-01-09T18:07:16.806Z,12.20
2023-01-09T18:09:44.955Z,12.08
2023-01-09T18:12:15.362Z,12.15
2023-01-09T18:14:43.344Z,12.21
2023-01-09T18:17:13.642Z,12.03
2023-01-09T18:19:41.348Z,12.11
2023-01-09T18:22:08.406Z,12.21
2023-01-09T18:24:35.512Z,12.01
2023-01-09T18:27:02.731Z,12.02
2023-01-09T18:29:29.676Z,12.14
2023-01-09T18:31:58.437Z,12.08
2023-01-09T18:34:27.097Z,12.25
2023-01-09T18:36:54.168Z,12.07
2023-01-09T18:39:22.807Z,12.07
2023-01-09T18:41:49.835Z,12.12
2023-01-09T18:44:18.372Z,12.12
2023-01-09T18:46:47.372Z,12.14
2023-01-09T18:49:14.945Z,12.07
2023-01-09T18:51:43.640Z,12.15
2023-01-09T18:54:12.344Z,12.00
2023-01-09T18:56:40.464Z,12.03
2023-01-09T18:59:09.729Z,12.14
2023-01-09T19:01:36.972Z,12.17
2023-01-09T19:04:04.680Z,12.06
2023-01-09T19:06:32.051Z,12.24
2023-01-09T19:08:59.812Z,12.35
2023-01-09T19:11:26.856Z,12.30
2023-01-09T19:13:54.020Z,12.31
2023-01-09T19:16:21.440Z,12.27
2023-01-09T19:18:48.648Z,12.21
2023-01-09T19:21:22.409Z,12.05
2023-01-09T19:23:50.163Z,12.10
2023-01-09T19:26:20.964Z,12.22
2023-01-09T19:28:48.509Z,12.28
2023-01-09T19:31:16.470Z,12.19
2023-01-09T19:33:46.530Z,12.17
2023-01-09T19:36:13.662Z,12.26
2023-01-09T19:38:41.149Z,12.14
2023-01-09T19:41:14.610Z,12.13
2023-01-09T19:43:42.498Z,12.26
2023-01-09T19:46:19.480Z,12.25
2023-01-09T19:48:47.872Z,12.40
2023-01-09T19:51:17.087Z,12.26
2023-01-09T19:53:44.884Z,12.16
2023-01-09T19:56:13.535Z,12.21
2023-01-09T19:58:42.143Z,12.36
2023-01-09T20:01:14.729Z,12.33
2023-01-09T20:03:46.932Z,12.30
2023-01-09T20:06:18.091Z,12.39
2023-01-09T20:08:49.749Z,12.40
2023-01-09T20:11:17.532Z,12.40
2023-01-09T20:13:45.541Z,12.34
2023-01-09T20:16:21.045Z,12.35
2023-01-09T20:18:48.953Z,12.42
2023-01-09T20:23:51.602Z,12.42
2023-01-09T20:26:20.039Z,12.30
2023-01-09T20:28:47.590Z,12.32
2023-01-09T20:31:17.111Z,12.38
2023-01-09T20:33:46.318Z,12.40
2023-01-09T20:36:14.141Z,12.43
2023-01-09T20:38:42.517Z,12.46
2023-01-09T20:41:23.194Z,12.64
2023-01-09T20:43:51.239Z,12.59
2023-01-09T20:46:20.085Z,12.60
2023-01-09T20:48:47.875Z,12.61
2023-01-09T20:51:15.002Z,12.64
2023-01-09T20:53:47.074Z,12.63
2023-01-09T20:56:14.531Z,12.62
2023-01-09T20:58:42.705Z,12.61
2023-01-09T21:01:13.720Z,12.57
2023-01-09T21:03:42.260Z,12.50
2023-01-09T21:06:13.044Z,12.51
2023-01-09T21:08:45.391Z,12.47
2023-01-09T21:11:12.829Z,12.48
2023-01-09T21:13:40.273Z,12.51
2023-01-09T21:16:13.849Z,12.50
2023-01-09T21:18:41.894Z,12.48
2023-01-09T21:21:13.539Z,12.53
2023-01-09T21:23:45.833Z,12.58
2023-01-09T21:26:14.268Z,12.52
2023-01-09T21:28:49.145Z,12.47
2023-01-09T21:31:19.531Z,12.43
2023-01-09T21:33:48.243Z,12.42
2023-01-09T21:36:16.103Z,12.47
2023-01-09T21:38:43.551Z,12.47
2023-01-09T21:41:29.544Z,12.50
2023-01-09T21:44:14.800Z,12.43
2023-01-09T21:46:57.841Z,12.44
2023-01-09T21:49:27.228Z,12.47
2023-01-09T21:51:55.325Z,12.48
2023-01-09T21:54:23.917Z,12.55
2023-01-09T21:56:52.726Z,12.61
2023-01-09T21:59:20.258Z,12.57
2023-01-09T22:01:49.392Z,12.56
2023-01-09T22:04:18.138Z,12.62
2023-01-09T22:06:45.512Z,12.52
2023-01-09T22:09:14.038Z,12.43
2023-01-09T22:11:43.312Z,12.48
2023-01-09T22:14:16.849Z,12.52
2023-01-09T22:16:47.834Z,12.51
2023-01-09T22:19:19.288Z,12.45
2023-01-09T22:21:46.964Z,12.30
2023-01-09T22:24:16.464Z,12.20
2023-01-09T22:26:44.049Z,12.14
2023-01-09T22:29:11.080Z,12.13
2023-01-09T22:31:40.322Z,12.07
2023-01-09T22:34:07.609Z,12.06
2023-01-09T22:36:34.785Z,11.98
2023-01-09T22:39:02.163Z,12.01
2023-01-09T22:41:30.749Z,12.05
2023-01-09T22:43:58.628Z,12.11
2023-01-09T22:46:26.626Z,11.94
2023-01-09T22:48:53.929Z,11.85
2023-01-09T22:51:22.237Z,11.81
2023-01-09T22:53:50.112Z,11.88
2023-01-09T22:56:22.291Z,11.83
2023-01-09T22:58:53.689Z,11.75
2023-01-09T23:01:22.439Z,11.82
2023-01-09T23:03:49.441Z,11.87
2023-01-09T23:06:19.178Z,11.91
2023-01-09T23:08:47.175Z,11.91
2023-01-09T23:11:38.568Z,11.87
2023-01-09T23:14:05.666Z,11.93
2023-01-09T23:16:32.610Z,11.95
2023-01-09T23:18:59.638Z,12.03
2023-01-09T23:21:26.671Z,12.01
2023-01-09T23:23:53.608Z,12.01
2023-01-09T23:26:20.467Z,12.04
2023-01-09T23:28:47.267Z,12.12
2023-01-09T23:31:15.601Z,12.16
2023-01-09T23:33:42.541Z,12.18
2023-01-09T23:36:09.515Z,12.25
2023-01-09T23:38:39.223Z,12.29
2023-01-09T23:41:07.504Z,12.16
2023-01-09T23:43:34.551Z,12.11
2023-01-09T23:46:02.033Z,12.14
2023-01-09T23:48:29.296Z,12.14
2023-01-09T23:50:56.223Z,12.09
2023-01-09T23:53:24.191Z,12.08
2023-01-09T23:55:56.914Z,12.05
2023-01-09T23:58:24.547Z,12.06
